Huntsville (HSV/KHSV)

Map

Destinations

Information

Location
Huntsville, AL
Local Time
17:29 / 5:29 pm
GMT Time
22:29 / 10:29 pm
Gates
Unassigned
No FAA reported delays
METAR KHSV 272153Z 17009KT 10SM -TSRA SCT050CB OVC100 22/16 A2984 RMK AO2 LTG DSNT ALQDS RAB27 TSB42 SLP100 FRQ LTGICCCCG VC W-NW TS VC W-NW MOV NE P0000 T02170156 $
TAF KHSV 272005Z 2720/2818 20010KT P6SM VCTS SCT030CB BKN080 OVC250 TEMPO 2721/2724 VRB20G30KT 2SM TSRA OVC015CB FM280000 19010G18KT 6SM -SHRA VCTS SCT025CB BKN040 FM280400 22007KT P6SM BKN025 FM281500 25008KT P6SM SCT030 BKN130
  • No charts available